Time;durP1;ratioP1;P1;durP2;ratioP2;P2;SDS_P1;SDS_P2;PMS_P1;PMS_P2;Temp;Humidity;BMP_temperature;BMP_pressure;BME280_temperature;BME280_humidity;BME280_pressure;Samples;Min_cycle;Max_cycle;Signal;HPM_P1;HPM_P2
2023/07/04 00:01:26;;;;;;;6.32;3.10;;;;;;;17.71;53.08;99102.72;5086762;28;20125;-49
2023/07/04 00:03:55;;;;;;;11.48;3.20;;;;;;;17.67;53.41;99107.38;5085869;28;20504;-53
2023/07/04 00:06:23;;;;;;;;;;;;;;;17.65;53.41;99108.41;5081676;28;20036;-50
2023/07/04 00:08:50;;;;;;;6.70;3.25;;;;;;;17.58;53.63;99109.78;5084142;28;19947;-51
2023/07/04 00:11:17;;;;;;;7.10;3.42;;;;;;;17.53;53.64;99117.16;5086314;28;20036;-50
2023/07/04 00:13:43;;;;;;;8.20;3.55;;;;;;;17.33;54.14;99087.03;5052921;28;20044;-51
2023/07/04 00:16:12;;;;;;;8.45;3.72;;;;;;;17.50;54.28;99115.59;5068802;28;20044;-53
2023/07/04 00:18:38;;;;;;;5.63;3.33;;;;;;;17.38;54.26;99095.44;5049632;28;20044;-51
2023/07/04 00:21:07;;;;;;;11.00;3.38;;;;;;;17.48;54.61;99117.47;5070426;28;20131;-51
2023/07/04 00:23:35;;;;;;;7.43;3.58;;;;;;;17.50;54.72;99117.38;5086898;28;20150;-49
2023/07/04 00:26:02;;;;;;;11.90;3.72;;;;;;;17.47;54.47;99115.81;5060025;28;20052;-52
2023/07/04 00:28:28;;;;;;;13.32;3.80;;;;;;;17.51;54.86;99127.78;5068573;28;20047;-54
2023/07/04 00:30:55;;;;;;;13.18;4.90;;;;;;;17.38;54.77;99106.78;5087865;28;20599;-53
2023/07/04 00:33:23;;;;;;;9.88;4.47;;;;;;;17.55;54.82;99126.59;5070099;28;20079;-55
2023/07/04 00:35:49;;;;;;;10.38;3.70;;;;;;;17.44;54.99;99112.53;5088096;28;20047;-49
2023/07/04 00:38:19;;;;;;;11.25;4.43;;;;;;;17.53;55.20;99136.41;5069444;28;20097;-50
2023/07/04 00:40:45;;;;;;;9.30;4.55;;;;;;;17.51;55.32;99129.56;5086744;28;20542;-51
2023/07/04 00:43:12;;;;;;;10.55;4.40;;;;;;;17.44;55.41;99130.94;5061340;28;20032;-51
2023/07/04 00:45:43;;;;;;;11.15;4.00;;;;;;;17.43;55.65;99135.34;5053725;28;20048;-51
2023/07/04 00:48:14;;;;;;;9.05;3.85;;;;;;;17.42;55.30;99136.34;5087576;28;20602;-53
2023/07/04 00:50:43;;;;;;;10.50;3.75;;;;;;;17.34;55.39;99133.38;5090819;28;20093;-48
2023/07/04 00:53:11;;;;;;;8.65;3.88;;;;;;;17.33;55.29;99135.19;5072746;28;20039;-49
2023/07/04 00:55:40;;;;;;;8.45;3.67;;;;;;;17.13;55.49;99108.63;5056933;28;20046;-51
2023/07/04 00:58:06;;;;;;;8.98;3.28;;;;;;;17.29;55.53;99141.59;5046856;28;20064;-49
2023/07/04 01:00:33;;;;;;;10.70;4.15;;;;;;;17.16;55.66;99118.94;5073404;28;20138;-53
2023/07/04 01:03:06;;;;;;;9.98;3.70;;;;;;;17.28;55.49;99144.31;5078217;28;20089;-51
2023/07/04 01:06:10;;;;;;;9.38;3.80;;;;;;;17.26;55.82;99148.88;5063921;28;20496;-51
2023/07/04 01:08:41;;;;;;;10.07;3.92;;;;;;;17.22;55.82;99150.84;4997166;28;20044;-53
2023/07/04 01:11:16;;;;;;;8.43;3.75;;;;;;;17.23;55.97;99156.94;5069740;28;20503;-48
2023/07/04 01:13:45;;;;;;;8.93;3.60;;;;;;;17.21;55.94;99149.19;5088898;28;20540;-50
2023/07/04 01:16:15;;;;;;;11.88;4.05;;;;;;;17.22;56.19;99158.72;5069253;28;20048;-50
2023/07/04 01:18:44;;;;;;;8.82;4.30;;;;;;;17.05;56.27;99129.34;5084820;28;20046;-52
2023/07/04 01:21:11;;;;;;;9.65;4.07;;;;;;;17.22;56.13;99165.78;5089460;28;20039;-50
2023/07/04 01:24:11;;;;;;;9.80;3.97;;;;;;;17.23;56.51;99164.81;5089916;28;20058;-51
2023/07/04 01:26:38;;;;;;;12.48;4.25;;;;;;;17.22;56.25;99169.25;5040023;28;20653;-49
2023/07/04 01:29:07;;;;;;;8.90;4.00;;;;;;;17.07;56.08;99149.28;5072609;28;20040;-49
2023/07/04 01:31:35;;;;;;;8.65;4.38;;;;;;;17.21;56.15;99169.38;5084077;28;20112;-52
2023/07/04 01:34:04;;;;;;;8.25;4.10;;;;;;;17.20;56.38;99172.94;5088307;28;20173;-53
2023/07/04 01:36:37;;;;;;;9.07;4.30;;;;;;;17.21;56.05;99179.88;5079214;28;20040;-53
2023/07/04 01:39:04;;;;;;;10.73;3.97;;;;;;;17.00;56.29;99150.69;5061774;28;20040;-53
2023/07/04 01:41:30;;;;;;;11.77;4.03;;;;;;;17.17;56.31;99176.59;5085976;28;20499;-50
2023/07/04 01:44:03;;;;;;;7.70;3.72;;;;;;;17.18;56.29;99185.31;5070300;28;20044;-54
2023/07/04 01:46:29;;;;;;;9.43;3.95;;;;;;;17.15;56.11;99182.94;5054899;28;20050;-53
2023/07/04 01:48:56;;;;;;;7.78;3.55;;;;;;;17.15;56.06;99196.06;5047842;28;20055;-54
2023/07/04 01:51:25;;;;;;;10.23;3.65;;;;;;;17.12;55.79;99183.97;5033935;28;20040;-54
2023/07/04 01:53:51;;;;;;;9.15;3.45;;;;;;;17.13;55.82;99197.94;5064283;28;20040;-53
2023/07/04 01:56:17;;;;;;;6.03;3.33;;;;;;;17.13;56.05;99200.56;5090511;28;20043;-51
2023/07/04 01:58:43;;;;;;;8.80;3.70;;;;;;;17.08;55.55;99195.63;5080272;28;20070;-49
2023/07/04 02:01:09;;;;;;;8.82;3.95;;;;;;;16.96;56.06;99174.63;5051625;28;20075;-50
2023/07/04 02:03:36;;;;;;;7.85;3.33;;;;;;;17.08;55.64;99203.50;5081652;28;20407;-50
2023/07/04 02:06:02;;;;;;;7.45;3.70;;;;;;;17.09;55.74;99213.06;5087699;28;20085;-52
2023/07/04 02:08:27;;;;;;;6.47;3.95;;;;;;;16.95;55.93;99194.81;5087195;28;20044;-53
2023/07/04 02:10:53;;;;;;;6.75;3.80;;;;;;;17.10;56.04;99222.66;5089001;28;20147;-50
2023/07/04 02:13:19;;;;;;;7.30;3.97;;;;;;;17.05;56.24;99222.13;5051176;28;20044;-50
2023/07/04 02:15:45;;;;;;;8.45;4.07;;;;;;;17.08;56.14;99227.16;5055558;28;20118;-52
2023/07/04 02:18:11;;;;;;;8.13;3.40;;;;;;;17.09;55.85;99223.59;5079606;28;20464;-50
2023/07/04 02:20:37;;;;;;;8.20;4.18;;;;;;;17.00;55.60;99210.25;5089196;28;20052;-48
2023/07/04 02:23:03;;;;;;;8.90;3.85;;;;;;;17.12;55.74;99230.41;5067058;28;20152;-51
2023/07/04 02:25:29;;;;;;;7.05;3.80;;;;;;;17.18;55.75;99232.63;5075840;28;20561;-49
2023/07/04 02:27:55;;;;;;;8.60;3.85;;;;;;;17.21;55.52;99230.63;5080492;28;20064;-53
2023/07/04 02:30:21;;;;;;;8.23;3.25;;;;;;;17.24;55.34;99235.66;5088850;28;20456;-53
2023/07/04 02:32:47;;;;;;;8.57;3.85;;;;;;;17.27;55.33;99229.38;5088725;28;20082;-49
2023/07/04 02:35:14;;;;;;;13.02;4.20;;;;;;;17.29;55.13;99232.72;5089882;28;20076;-50
2023/07/04 02:37:41;;;;;;;8.43;3.83;;;;;;;17.32;54.86;99237.78;5087950;28;20067;-49
2023/07/04 02:40:09;;;;;;;9.15;4.03;;;;;;;17.36;54.96;99236.63;5089852;28;20044;-52
2023/07/04 02:42:35;;;;;;;8.73;3.83;;;;;;;17.40;54.91;99239.84;5077770;28;20085;-49
2023/07/04 02:45:01;;;;;;;19.70;4.15;;;;;;;17.44;54.99;99242.16;5087011;28;20043;-53
2023/07/04 02:47:30;;;;;;;9.70;3.67;;;;;;;17.34;54.62;99225.34;5078023;28;20036;-51
2023/07/04 02:50:00;;;;;;;7.10;3.50;;;;;;;17.53;54.56;99245.97;5069775;28;20124;-53
2023/07/04 02:52:30;;;;;;;16.30;4.03;;;;;;;17.52;54.37;99239.88;5054747;28;20602;-49
2023/07/04 02:54:56;;;;;;;8.00;3.85;;;;;;;17.44;54.12;99228.19;5088283;28;20093;-51
2023/07/04 02:57:23;;;;;;;10.35;3.70;;;;;;;17.58;54.62;99251.75;5069563;28;20044;-54
2023/07/04 02:59:50;;;;;;;10.38;3.60;;;;;;;17.62;54.37;99250.59;5070537;28;20515;-54
2023/07/04 03:02:17;;;;;;;6.80;3.55;;;;;;;17.59;54.25;99242.88;5076887;28;20097;-51
2023/07/04 03:04:45;;;;;;;7.65;2.90;;;;;;;17.68;54.01;99252.81;5042087;28;20032;-54
2023/07/04 03:07:12;;;;;;;6.90;3.30;;;;;;;17.65;53.86;99245.13;5086228;28;20040;-50
2023/07/04 03:09:40;;;;;;;8.20;3.28;;;;;;;17.74;53.73;99255.81;5082020;28;20146;-53
2023/07/04 03:12:06;;;;;;;6.85;3.10;;;;;;;17.76;53.82;99263.59;5053520;28;20555;-54
2023/07/04 03:14:32;;;;;;;7.63;2.95;;;;;;;17.50;53.45;99212.00;5054810;28;20055;-54
2023/07/04 03:16:58;;;;;;;5.68;3.05;;;;;;;17.85;53.44;99260.31;5066694;28;20040;-53
2023/07/04 03:19:24;;;;;;;5.88;2.83;;;;;;;17.85;53.58;99262.94;5067468;28;20040;-53
2023/07/04 03:21:53;;;;;;;8.97;2.97;;;;;;;17.89;53.14;99259.19;5082107;28;20485;-50
2023/07/04 03:24:20;;;;;;;9.95;2.80;;;;;;;17.91;53.09;99266.94;5029680;28;20675;-50
2023/07/04 03:26:47;;;;;;;5.63;3.03;;;;;;;17.95;52.80;99263.16;5050877;28;20089;-53
2023/07/04 03:29:16;;;;;;;6.50;2.88;;;;;;;17.96;52.70;99265.66;5036475;28;20041;-54
2023/07/04 03:31:42;;;;;;;6.75;3.15;;;;;;;18.02;52.58;99259.13;5030910;28;20715;-50
2023/07/04 03:34:10;;;;;;;8.07;3.22;;;;;;;18.07;52.54;99264.91;5049871;28;20434;-50
2023/07/04 03:36:37;;;;;;;6.13;3.25;;;;;;;18.06;52.63;99268.47;5030059;28;20144;-49
2023/07/04 03:39:03;;;;;;;4.90;2.85;;;;;;;18.11;52.50;99261.94;5030822;28;20037;-51
2023/07/04 03:41:31;;;;;;;8.60;2.95;;;;;;;18.15;52.30;99268.69;5017842;28;20036;-50
2023/07/04 03:43:57;;;;;;;7.22;3.47;;;;;;;18.18;52.55;99273.72;5030733;28;20043;-53
2023/07/04 03:46:23;;;;;;;10.88;3.15;;;;;;;18.20;52.79;99274.44;5042284;28;20044;-48
2023/07/04 03:48:49;;;;;;;7.03;2.35;;;;;;;18.29;52.63;99270.31;5067341;28;20048;-50
2023/07/04 03:51:16;;;;;;;11.85;3.40;;;;;;;18.17;52.43;99255.41;5043697;28;20123;-52
2023/07/04 03:53:44;;;;;;;5.82;2.78;;;;;;;18.35;52.67;99283.03;5042609;28;20603;-53
2023/07/04 03:56:10;;;;;;;9.23;3.60;;;;;;;18.40;52.80;99278.28;5014023;28;20049;-49
2023/07/04 03:58:36;;;;;;;4.88;2.70;;;;;;;18.43;52.66;99277.19;5038539;28;20040;-53
2023/07/04 04:01:06;;;;;;;6.60;3.20;;;;;;;18.37;52.57;99269.75;5050321;28;20043;-53
2023/07/04 04:03:37;;;;;;;7.53;2.70;;;;;;;18.53;52.57;99296.63;5067265;28;20144;-53
2023/07/04 04:06:08;;;;;;;15.13;3.22;;;;;;;18.57;52.50;99285.81;5066991;28;20475;-54
2023/07/04 04:08:34;;;;;;;9.68;3.20;;;;;;;18.61;52.24;99286.41;5066140;28;20390;-50
2023/07/04 04:11:01;;;;;;;7.28;2.67;;;;;;;18.68;52.44;99292.94;5067963;28;20528;-56
2023/07/04 04:13:27;;;;;;;7.50;2.72;;;;;;;18.73;52.30;99301.31;5068036;28;20056;-50
2023/07/04 04:15:53;;;;;;;7.82;2.97;;;;;;;18.78;51.93;99304.47;5049938;28;20052;-49
2023/07/04 04:18:19;;;;;;;9.75;3.50;;;;;;;18.65;51.42;99265.97;5036199;28;20044;-51
2023/07/04 04:20:45;;;;;;;10.13;3.28;;;;;;;18.79;51.44;99286.88;5072097;28;20515;-54
2023/07/04 04:23:12;;;;;;;6.65;2.90;;;;;;;18.82;51.54;99284.84;5042305;28;20066;-51
2023/07/04 04:25:38;;;;;;;5.55;2.75;;;;;;;18.99;51.47;99302.88;5070452;28;20433;-52
2023/07/04 04:28:08;;;;;;;6.85;2.90;;;;;;;19.02;51.47;99305.25;5054272;28;20033;-50
2023/07/04 04:30:35;;;;;;;7.18;3.55;;;;;;;19.08;51.37;99314.50;5086890;28;20084;-51
2023/07/04 04:33:02;;;;;;;6.05;3.15;;;;;;;19.13;51.09;99306.25;5070695;28;20041;-49
2023/07/04 04:35:32;;;;;;;8.10;2.95;;;;;;;19.17;51.04;99310.31;5071127;28;20033;-50
2023/07/04 04:37:58;;;;;;;6.80;3.05;;;;;;;19.20;50.87;99312.75;5080823;28;20051;-53
2023/07/04 04:40:24;;;;;;;8.02;3.00;;;;;;;19.23;50.78;99308.06;5090063;28;20423;-53
2023/07/04 04:42:53;;;;;;;14.10;3.45;;;;;;;19.27;50.48;99311.28;5058939;28;20036;-53
2023/07/04 04:45:19;;;;;;;;;;;;;;;19.31;50.56;99320.69;5072179;28;20044;-52
2023/07/04 04:47:52;;;;;;;8.05;3.40;;;;;;;19.30;50.61;99316.34;5054551;28;19922;-50
2023/07/04 04:50:20;;;;;;;7.43;3.30;;;;;;;19.35;50.89;99316.84;5079669;28;20040;-51
2023/07/04 04:52:47;;;;;;;15.32;3.55;;;;;;;19.38;50.88;99309.53;5077677;28;20123;-53
2023/07/04 04:55:14;;;;;;;6.43;3.38;;;;;;;19.33;51.22;99293.22;5062622;28;20122;-53
2023/07/04 04:57:40;;;;;;;5.70;3.42;;;;;;;19.57;51.03;99314.28;5082812;28;20044;-50
2023/07/04 05:00:07;;;;;;;9.15;3.22;;;;;;;19.60;50.73;99316.66;5081435;28;20032;-50
2023/07/04 05:02:34;;;;;;;12.32;3.45;;;;;;;19.59;50.31;99308.88;5086191;28;20032;-40
2023/07/04 05:04:59;;;;;;;9.00;3.53;;;;;;;19.67;50.72;99322.31;5083226;28;20516;-40
2023/07/04 05:07:26;;;;;;;10.48;3.28;;;;;;;19.60;50.37;99302.66;5090249;28;20127;-40
2023/07/04 05:09:53;;;;;;;6.43;3.03;;;;;;;19.71;50.31;99332.50;5091246;28;20415;-41
2023/07/04 05:12:19;;;;;;;10.35;3.20;;;;;;;19.78;50.32;99331.06;5091709;28;20036;-40
2023/07/04 05:14:45;;;;;;;9.02;3.05;;;;;;;19.82;50.04;99335.16;5079602;28;20032;-41
2023/07/04 05:17:11;;;;;;;8.30;3.72;;;;;;;19.84;50.08;99335.03;5073241;28;20910;-42
2023/07/04 05:19:37;;;;;;;7.68;3.03;;;;;;;19.88;49.77;99336.47;5091447;28;20109;-41
2023/07/04 05:22:03;;;;;;;11.68;3.20;;;;;;;19.96;50.00;99336.72;5089916;28;20074;-40
2023/07/04 05:24:32;;;;;;;11.00;3.47;;;;;;;20.06;49.44;99347.38;5087733;28;20050;-40
2023/07/04 05:26:58;;;;;;;8.55;3.10;;;;;;;20.08;49.34;99356.03;5084327;28;20032;-41
2023/07/04 05:29:24;;;;;;;6.80;3.35;;;;;;;20.12;49.32;99354.81;5090924;28;20044;-40
2023/07/04 05:31:50;;;;;;;14.10;4.03;;;;;;;20.18;49.15;99354.34;5084359;28;20446;-41
2023/07/04 05:34:16;;;;;;;8.82;3.17;;;;;;;20.27;49.33;99361.53;5071487;28;20040;-40
2023/07/04 05:36:42;;;;;;;8.23;3.38;;;;;;;20.09;49.48;99311.03;5090964;28;20439;-39
2023/07/04 05:39:08;;;;;;;10.63;3.63;;;;;;;20.52;49.46;99356.00;5090886;28;20071;-39
2023/07/04 05:41:35;;;;;;;9.82;3.60;;;;;;;20.51;48.93;99329.72;5090424;28;20036;-40
2023/07/04 05:44:03;;;;;;;6.28;3.30;;;;;;;20.70;48.72;99356.31;5071922;28;20043;-40
2023/07/04 05:46:29;;;;;;;9.00;3.50;;;;;;;20.75;48.71;99361.22;5083725;28;20500;-39
2023/07/04 05:48:59;;;;;;;6.80;3.30;;;;;;;20.74;48.29;99339.25;5081237;28;20036;-40
2023/07/04 05:51:25;;;;;;;9.80;3.53;;;;;;;21.08;48.35;99361.97;5072856;28;20097;-40
2023/07/04 05:53:52;;;;;;;7.57;3.65;;;;;;;21.27;47.23;99357.81;5079260;28;20527;-39
2023/07/04 05:56:24;;;;;;;9.68;3.35;;;;;;;21.28;47.11;99370.91;5089576;28;20047;-39
2023/07/04 05:58:55;;;;;;;7.35;3.55;;;;;;;21.33;47.22;99347.56;5081286;28;20508;-41
2023/07/04 06:01:42;;;;;;;8.57;3.58;;;;;;;21.64;46.53;99379.34;5077837;28;20032;-40
2023/07/04 06:04:11;;;;;;;10.15;3.80;;;;;;;21.71;46.10;99365.50;5064328;28;20072;-41
2023/07/04 06:06:51;;;;;;;9.23;3.83;;;;;;;21.81;45.85;99379.63;5077045;28;20063;-39
2023/07/04 06:09:18;;;;;;;13.30;3.60;;;;;;;21.78;45.80;99379.84;5080028;28;20040;-41
2023/07/04 06:11:45;;;;;;;8.30;3.45;;;;;;;21.80;46.04;99375.28;5072725;28;20145;-39
2023/07/04 06:14:16;;;;;;;7.20;3.78;;;;;;;22.01;46.19;99379.72;5056630;28;20049;-41
2023/07/04 06:16:42;;;;;;;10.68;3.85;;;;;;;21.98;45.89;99354.38;5079215;28;20062;-42
2023/07/04 06:19:08;;;;;;;7.80;3.38;;;;;;;22.14;45.90;99389.13;5077708;28;20070;-42
2023/07/04 06:21:33;;;;;;;9.18;3.80;;;;;;;22.12;45.70;99374.34;5052808;28;20113;-42
2023/07/04 06:23:59;;;;;;;7.00;3.90;;;;;;;22.22;45.43;99383.16;5067557;28;20056;-42
2023/07/04 06:26:27;;;;;;;7.28;3.50;;;;;;;22.23;45.12;99379.56;5087933;28;20057;-41
2023/07/04 06:28:54;;;;;;;7.93;3.20;;;;;;;22.32;44.53;99389.34;5079730;28;20428;-40
2023/07/04 06:31:20;;;;;;;7.78;3.35;;;;;;;22.38;44.20;99387.00;5073604;28;20164;-40
2023/07/04 06:33:46;;;;;;;5.80;3.22;;;;;;;22.56;43.77;99392.47;5077887;28;20075;-42
2023/07/04 06:36:15;;;;;;;7.38;3.33;;;;;;;22.97;43.75;99388.84;5070031;28;20040;-42
2023/07/04 06:38:41;;;;;;;6.88;3.30;;;;;;;23.13;42.43;99398.88;5075312;28;20055;-41
2023/07/04 06:41:10;;;;;;;7.40;3.20;;;;;;;23.07;41.84;99386.19;5067164;28;20097;-43
2023/07/04 06:43:38;;;;;;;9.25;3.40;;;;;;;23.60;41.06;99405.19;5056787;28;20087;-45
2023/07/04 06:46:04;;;;;;;7.47;2.75;;;;;;;23.77;39.64;99400.94;5070552;28;20039;-40
2023/07/04 06:48:30;;;;;;;7.25;3.00;;;;;;;24.24;39.37;99399.97;5071049;28;20116;-50
2023/07/04 06:51:00;;;;;;;8.68;3.70;;;;;;;24.56;39.09;99401.38;5087756;28;20093;-41
2023/07/04 06:53:26;;;;;;;7.10;3.38;;;;;;;25.21;37.56;99379.00;5071487;28;20028;-41
2023/07/04 06:55:53;;;;;;;7.45;2.78;;;;;;;25.96;36.13;99372.25;5054974;28;20035;-46
2023/07/04 06:58:19;;;;;;;9.80;3.85;;;;;;;26.11;35.11;99371.50;5076381;28;20135;-42
2023/07/04 07:00:45;;;;;;;7.22;3.15;;;;;;;26.86;34.59;99411.63;5077563;28;20043;-44
2023/07/04 07:03:11;;;;;;;6.60;2.90;;;;;;;27.45;33.51;99404.38;5068962;28;20450;-42
2023/07/04 07:05:38;;;;;;;7.80;3.38;;;;;;;27.83;32.97;99382.34;5068962;28;20044;-42
2023/07/04 07:08:04;;;;;;;8.15;3.55;;;;;;;28.38;32.16;99403.75;5087115;28;20051;-44
2023/07/04 07:10:36;;;;;;;10.35;3.47;;;;;;;28.78;31.20;99399.28;5064149;28;20068;-47
2023/07/04 07:13:03;;;;;;;5.88;3.30;;;;;;;29.92;30.28;99402.78;5071071;28;20048;-47
2023/07/04 07:15:29;;;;;;;15.20;3.40;;;;;;;30.47;29.09;99406.88;5061242;28;20119;-46
2023/07/04 07:17:56;;;;;;;7.15;3.55;;;;;;;30.83;28.43;99410.41;5033775;28;20123;-46
2023/07/04 07:20:21;;;;;;;6.35;3.30;;;;;;;31.75;28.04;99414.06;5019961;28;20043;-46
2023/07/04 07:22:47;;;;;;;9.48;3.72;;;;;;;32.90;26.64;99403.56;5069760;28;20072;-45
2023/07/04 07:25:13;;;;;;;6.47;3.55;;;;;;;34.29;25.99;99407.16;5088768;28;20038;-45
2023/07/04 07:27:41;;;;;;;9.00;3.73;;;;;;;34.52;25.18;99410.22;5087816;28;20048;-47
2023/07/04 07:30:07;;;;;;;7.93;3.78;;;;;;;33.85;24.60;99405.16;5067546;28;20577;-46
2023/07/04 07:32:33;;;;;;;8.77;3.90;;;;;;;33.27;25.18;99415.69;5055364;28;20060;-46
2023/07/04 07:34:58;;;;;;;8.93;4.20;;;;;;;34.23;24.24;99410.72;5074537;28;20071;-46
2023/07/04 07:37:24;;;;;;;8.63;3.80;;;;;;;34.51;23.29;99423.91;5088175;28;20093;-45
2023/07/04 07:39:51;;;;;;;8.57;3.58;;;;;;;33.67;24.11;99421.09;5086331;28;20046;-44
2023/07/04 07:42:17;;;;;;;7.95;3.60;;;;;;;33.07;24.84;99425.56;5086110;28;20040;-44
2023/07/04 07:44:42;;;;;;;6.35;3.50;;;;;;;33.01;24.76;99423.69;5069993;28;20193;-46
2023/07/04 07:47:12;;;;;;;11.23;4.22;;;;;;;33.23;24.84;99425.22;5052209;28;20123;-45
2023/07/04 07:49:38;;;;;;;7.65;3.63;;;;;;;33.26;24.13;99422.13;5065330;28;20097;-45
2023/07/04 07:52:04;;;;;;;5.05;3.35;;;;;;;33.63;23.41;99428.78;5081271;28;20126;-44
2023/07/04 07:54:30;;;;;;;5.50;3.58;;;;;;;33.57;23.32;99402.66;5074485;28;20032;-44
2023/07/04 07:56:56;;;;;;;7.25;3.20;;;;;;;34.02;23.21;99427.97;5083355;28;20216;-46
2023/07/04 07:59:22;;;;;;;6.55;3.35;;;;;;;34.68;22.75;99425.09;5071470;28;20131;-43
2023/07/04 08:01:48;;;;;;;9.27;3.47;;;;;;;34.34;22.37;99423.56;5078438;28;20043;-45
2023/07/04 08:04:14;;;;;;;8.00;3.75;;;;;;;35.38;22.17;99432.25;5067189;28;20081;-44
2023/07/04 08:06:42;;;;;;;7.82;3.70;;;;;;;35.61;21.67;99397.31;5077220;28;20043;-47
2023/07/04 08:09:13;;;;;;;10.52;3.63;;;;;;;36.14;21.78;99434.78;5080346;28;20067;-50
2023/07/04 08:11:40;;;;;;;6.35;3.40;;;;;;;36.05;21.77;99423.41;5080813;28;20032;-44
2023/07/04 08:14:06;;;;;;;8.85;3.97;;;;;;;36.39;21.42;99429.28;5079650;28;20101;-45
2023/07/04 08:16:44;;;;;;;5.88;3.47;;;;;;;36.11;21.50;99422.47;5082713;28;20036;-44
2023/07/04 08:19:10;;;;;;;6.30;3.83;;;;;;;35.85;20.72;99428.16;5076550;28;20040;-45
2023/07/04 08:21:36;;;;;;;5.38;3.58;;;;;;;35.31;21.70;99399.03;5069152;28;20815;-45
2023/07/04 08:24:03;;;;;;;9.57;4.28;;;;;;;36.53;21.13;99425.41;5062856;28;20583;-42
2023/07/04 08:26:29;;;;;;;8.15;4.13;;;;;;;37.74;19.60;99430.59;5080578;28;20047;-45
2023/07/04 08:28:56;;;;;;;9.57;4.40;;;;;;;38.25;19.57;99424.50;5062351;28;20423;-44
2023/07/04 08:31:23;;;;;;;6.70;3.58;;;;;;;39.57;18.73;99429.84;5063660;28;20047;-47
2023/07/04 08:33:49;;;;;;;8.05;3.50;;;;;;;39.54;18.06;99442.03;5086540;28;20874;-43
2023/07/04 08:36:17;;;;;;;8.40;4.03;;;;;;;38.31;18.74;99414.56;5069969;28;20044;-47
2023/07/04 08:38:46;;;;;;;8.98;3.78;;;;;;;37.53;19.80;99425.72;5052311;28;20050;-44
2023/07/04 08:41:38;;;;;;;6.47;4.13;;;;;;;35.65;20.60;99425.59;5066418;28;20055;-46
2023/07/04 08:44:17;;;;;;;7.72;3.92;;;;;;;35.60;21.06;99421.88;5074635;28;20043;-47
2023/07/04 08:46:48;;;;;;;10.45;3.78;;;;;;;36.32;20.02;99417.72;5069792;28;20393;-45
2023/07/04 08:49:38;;;;;;;7.85;3.95;;;;;;;36.33;20.40;99411.22;5058877;28;20040;-45
2023/07/04 08:52:17;;;;;;;9.82;3.67;;;;;;;36.91;19.76;99423.25;5070915;28;20051;-47
2023/07/04 08:54:44;;;;;;;6.93;3.97;;;;;;;36.58;20.41;99424.72;5081597;28;20492;-43
2023/07/04 08:57:18;;;;;;;7.15;3.65;;;;;;;36.45;19.83;99425.69;5076088;28;20543;-44
2023/07/04 08:59:45;;;;;;;7.72;3.83;;;;;;;36.68;20.27;99441.28;5086240;28;20401;-44
2023/07/04 09:02:40;;;;;;;9.40;4.18;;;;;;;37.15;19.23;99428.81;5074747;28;20094;-45
2023/07/04 09:05:30;;;;;;;9.30;3.88;;;;;;;36.88;20.08;99436.44;5081216;28;20040;-43
2023/07/04 09:08:05;;;;;;;5.57;3.83;;;;;;;36.22;19.90;99439.88;5086084;28;20055;-43
2023/07/04 09:10:39;;;;;;;7.80;3.75;;;;;;;36.13;20.40;99430.38;5075835;28;20048;-43
2023/07/04 09:13:11;;;;;;;6.63;3.97;;;;;;;36.41;19.12;99424.50;5076391;28;20449;-43
2023/07/04 09:15:41;;;;;;;7.72;3.63;;;;;;;36.43;20.08;99423.19;5053159;28;20516;-44
2023/07/04 09:18:27;;;;;;;10.27;3.97;;;;;;;37.00;19.41;99420.25;5086542;28;20067;-44
2023/07/04 09:21:21;;;;;;;4.90;3.85;;;;;;;38.80;18.09;99421.31;5089933;28;20036;-48
2023/07/04 09:23:49;;;;;;;5.78;3.67;;;;;;;39.51;17.40;99409.88;5069176;28;20811;-43
2023/07/04 09:26:20;;;;;;;7.38;3.67;;;;;;;39.57;17.60;99416.25;5034265;28;20028;-43
2023/07/04 09:28:47;;;;;;;6.35;3.75;;;;;;;39.67;17.33;99421.84;5024390;28;20065;-42
2023/07/04 09:31:23;;;;;;;12.05;4.03;;;;;;;38.32;17.64;99405.34;5021096;28;20040;-42
2023/07/04 09:33:52;;;;;;;10.35;4.13;;;;;;;37.51;18.52;99428.66;5059862;28;20041;-42
2023/07/04 09:36:21;;;;;;;6.38;4.03;;;;;;;37.71;18.66;99422.94;5043585;28;20052;-45
2023/07/04 09:38:53;;;;;;;9.52;5.13;;;;;;;38.42;18.10;99419.97;5044344;28;20106;-42
2023/07/04 09:41:29;;;;;;;4.97;3.72;;;;;;;38.55;17.72;99408.03;5025270;28;20390;-44
2023/07/04 09:43:57;;;;;;;6.45;3.55;;;;;;;38.99;17.13;99401.84;5060334;28;20044;-46
2023/07/04 09:46:29;;;;;;;8.38;3.72;;;;;;;39.12;17.59;99425.22;5042275;28;20396;-44
2023/07/04 09:49:22;;;;;;;4.60;3.80;;;;;;;36.89;19.16;99405.56;5041161;28;20048;-43
2023/07/04 09:52:04;;;;;;;5.20;3.42;;;;;;;38.65;18.28;99416.41;5044172;28;20079;-41
2023/07/04 09:54:35;;;;;;;8.15;4.40;;;;;;;40.43;16.94;99410.19;5042762;28;20036;-42
2023/07/04 09:57:25;;;;;;;7.93;4.32;;;;;;;39.80;16.96;99419.63;5042287;28;20037;-43
2023/07/04 09:59:52;;;;;;;6.70;3.95;;;;;;;39.92;16.65;99413.25;5051058;28;20040;-46
2023/07/04 10:02:24;;;;;;;7.82;3.53;;;;;;;39.11;16.77;99415.41;5069796;28;20033;-47
2023/07/04 10:04:50;;;;;;;7.03;3.55;;;;;;;37.11;18.34;99400.50;5020023;28;20048;-46
2023/07/04 10:07:20;;;;;;;7.18;3.80;;;;;;;36.65;18.80;99410.06;5005171;28;20061;-45
2023/07/04 10:10:07;;;;;;;7.63;3.83;;;;;;;38.05;17.63;99413.19;5015838;28;20049;-42
2023/07/04 10:12:41;;;;;;;4.30;3.72;;;;;;;38.19;17.36;99411.03;5003831;28;20048;-41
2023/07/04 10:15:07;;;;;;;5.10;3.90;;;;;;;38.96;17.03;99406.97;4997782;28;20587;-45
2023/07/04 10:17:35;;;;;;;6.60;4.00;;;;;;;38.74;16.87;99395.09;5034325;28;20492;-42
2023/07/04 10:20:10;;;;;;;6.28;3.50;;;;;;;38.36;16.90;99404.63;5045562;28;20466;-43
2023/07/04 10:22:38;;;;;;;5.10;3.30;;;;;;;38.12;16.77;99400.28;5018715;28;20480;-42
2023/07/04 10:25:11;;;;;;;5.03;3.90;;;;;;;38.30;16.79;99396.63;5084368;28;20540;-46
2023/07/04 10:27:39;;;;;;;5.93;3.92;;;;;;;39.08;16.31;99398.75;5085922;28;20028;-45
2023/07/04 10:30:15;;;;;;;10.85;3.88;;;;;;;39.58;15.68;99391.47;5059248;28;20036;-47
2023/07/04 10:32:44;;;;;;;4.53;3.72;;;;;;;40.61;15.32;99401.69;5078460;28;20556;-41
2023/07/04 10:35:12;;;;;;;4.60;3.30;;;;;;;40.38;15.06;99396.50;5070312;28;20051;-42
2023/07/04 10:37:39;;;;;;;5.07;3.60;;;;;;;37.04;17.16;99397.84;5084841;28;20097;-45
2023/07/04 10:40:10;;;;;;;12.38;3.40;;;;;;;34.78;18.95;99399.31;5068103;28;20143;-45
2023/07/04 10:43:01;;;;;;;6.75;4.00;;;;;;;33.35;20.58;99402.00;5058434;28;20098;-41
2023/07/04 10:45:28;;;;;;;9.05;3.55;;;;;;;35.44;18.66;99398.09;5078367;28;20127;-41
2023/07/04 10:48:01;;;;;;;5.28;3.00;;;;;;;36.30;18.35;99412.53;5071142;28;20040;-42
2023/07/04 10:50:43;;;;;;;6.65;3.83;;;;;;;34.90;19.14;99409.44;5053918;28;20059;-42
2023/07/04 10:53:09;;;;;;;5.55;3.53;;;;;;;35.95;18.81;99409.53;5089612;28;20048;-42
2023/07/04 10:55:47;;;;;;;7.90;3.67;;;;;;;36.08;18.49;99395.03;5087851;28;20141;-43
2023/07/04 10:58:18;;;;;;;6.40;3.08;;;;;;;35.28;18.98;99399.44;5070876;28;20093;-43
2023/07/04 11:00:58;;;;;;;6.70;3.88;;;;;;;36.86;18.44;99401.44;5087827;28;20036;-43
2023/07/04 11:03:51;;;;;;;8.77;4.53;;;;;;;38.10;16.90;99407.88;5088191;28;20050;-42
2023/07/04 11:06:29;;;;;;;6.85;4.20;;;;;;;38.35;16.97;99402.16;5089194;28;20122;-44
2023/07/04 11:08:56;;;;;;;9.07;3.97;;;;;;;38.01;16.89;99406.56;5087689;28;20036;-44
2023/07/04 11:11:28;;;;;;;6.78;4.05;;;;;;;37.87;16.56;99400.53;5071220;28;20096;-44
2023/07/04 11:13:57;;;;;;;6.20;4.25;;;;;;;38.29;16.20;99403.09;5088617;28;20067;-42
2023/07/04 11:16:27;;;;;;;9.63;5.22;;;;;;;39.29;15.31;99403.47;5070782;28;20068;-41
2023/07/04 11:19:19;;;;;;;8.00;4.50;;;;;;;39.10;15.35;99394.72;5070653;28;20113;-42
2023/07/04 11:22:00;;;;;;;5.68;4.28;;;;;;;39.85;14.86;99380.75;5089086;28;20097;-42
2023/07/04 11:24:52;;;;;;;5.22;3.80;;;;;;;39.59;14.87;99398.56;5087750;28;20054;-43
2023/07/04 11:27:30;;;;;;;7.18;4.10;;;;;;;40.01;15.10;99395.41;5087022;28;20108;-42
2023/07/04 11:29:59;;;;;;;6.18;3.80;;;;;;;39.87;15.22;99394.13;5087216;28;20483;-43
2023/07/04 11:32:37;;;;;;;7.10;3.83;;;;;;;39.88;14.59;99384.91;5070406;28;20044;-41
2023/07/04 11:35:09;;;;;;;9.75;4.18;;;;;;;40.53;14.78;99384.94;5089136;28;20142;-46
2023/07/04 11:38:06;;;;;;;5.40;3.63;;;;;;;41.42;13.59;99368.97;5088617;28;20116;-43
2023/07/04 11:40:44;;;;;;;5.78;4.05;;;;;;;40.01;13.99;99389.97;5057348;28;20044;-41
2023/07/04 11:43:21;;;;;;;6.35;3.90;;;;;;;39.47;14.63;99369.78;5067266;28;20044;-42